< < Back
Terminal Aerodrome Forecast


Current Version              Previous Versions:   1  2  3  4  5  6  7  8  9  

Terminal Aerodrome Forecast

667
FTUS42 KTAE 011100
TAFTLH
TAF
KTLH 011120Z 0112/0212 VRB02KT P6SM BKN040
     FM011600 10006KT P6SM SCT040
     FM020000 00000KT P6SM SCT100
     FM020900 00000KT 4SM BR SCT015=

Latest METAR

135
SAUS80 KWBC 012000 RRD
MTRTLH
METAR KTLH 011953Z VRB04KT 10SM OVC060 29/19 A2994 RMK AO2 SLP138
T02940189


USA.gov is the U.S. government's official web portal to all federal, state and local government web resources and services.